Time;durP1;ratioP1;P1;durP2;ratioP2;P2;SDS_P1;SDS_P2;PMS_P1;PMS_P2;Temp;Humidity;BMP_temperature;BMP_pressure;BME280_temperature;BME280_humidity;BME280_pressure;Samples;Min_cycle;Max_cycle;Signal;HPM_P1;HPM_P2
2022/11/17 00:02:23;;;;;;;2.70;1.67;;;10.50;99.90;;;;;;5032606;28;20307;-79
2022/11/17 00:04:49;;;;;;;1.93;1.37;;;10.40;99.90;;;;;;5032756;28;20200;-80
2022/11/17 00:07:14;;;;;;;5.53;2.10;;;10.40;99.90;;;;;;5033048;28;20650;-80
2022/11/17 00:09:40;;;;;;;2.40;1.37;;;10.40;99.90;;;;;;5033319;28;20648;-80
2022/11/17 00:14:50;;;;;;;5.63;1.40;;;10.30;99.90;;;;;;5050620;28;20225;-82
2022/11/17 00:17:16;;;;;;;2.60;1.20;;;10.30;99.90;;;;;;5032103;28;20434;-80
2022/11/17 00:22:30;;;;;;;3.00;1.83;;;10.30;99.90;;;;;;5049578;28;20320;-80
2022/11/17 00:24:56;;;;;;;1.50;1.40;;;10.20;99.90;;;;;;5049381;28;20558;-80
2022/11/17 00:27:22;;;;;;;1.77;1.33;;;10.10;99.90;;;;;;5049435;28;21092;-81
2022/11/17 00:29:48;;;;;;;1.93;1.53;;;10.30;99.90;;;;;;5050705;28;20528;-81
2022/11/17 00:35:04;;;;;;;2.20;1.30;;;10.20;99.90;;;;;;5049316;28;20291;-80
2022/11/17 00:37:33;;;;;;;7.40;1.70;;;10.10;99.90;;;;;;5048665;28;20432;-80
2022/11/17 00:39:59;;;;;;;2.60;1.57;;;10.30;99.90;;;;;;5031959;28;20532;-80
2022/11/17 00:42:24;;;;;;;5.40;1.37;;;10.30;99.90;;;;;;5031656;28;20596;-80
2022/11/17 00:44:50;;;;;;;2.90;1.30;;;10.30;99.90;;;;;;5048924;28;20596;-80
2022/11/17 00:47:16;;;;;;;1.20;1.03;;;10.40;99.90;;;;;;5032747;28;20186;-81
2022/11/17 00:49:41;;;;;;;1.93;1.10;;;10.40;99.90;;;;;;5031749;28;20187;-81
2022/11/17 00:52:08;;;;;;;1.50;1.20;;;10.50;99.90;;;;;;5031583;28;20196;-80
2022/11/17 00:54:34;;;;;;;1.53;1.30;;;10.50;99.90;;;;;;5031586;28;20223;-83
2022/11/17 00:57:00;;;;;;;1.63;1.53;;;10.50;99.90;;;;;;5031509;28;20815;-80
2022/11/17 00:59:26;;;;;;;4.20;1.30;;;10.60;99.90;;;;;;5048138;28;20190;-80
2022/11/17 01:01:51;;;;;;;2.47;1.13;;;10.60;99.90;;;;;;5031549;28;20470;-80
2022/11/17 01:04:17;;;;;;;1.40;1.30;;;10.60;99.90;;;;;;5031167;28;20562;-81
2022/11/17 01:06:47;;;;;;;3.87;1.20;;;10.50;99.90;;;;;;5031391;28;20569;-79
2022/11/17 01:09:15;;;;;;;3.37;1.10;;;10.50;99.90;;;;;;5049552;28;20292;-79
2022/11/17 01:11:42;;;;;;;2.50;1.23;;;10.50;99.90;;;;;;5031379;28;20445;-80
2022/11/17 01:14:12;;;;;;;1.40;1.23;;;10.50;99.90;;;;;;5047656;28;20455;-80
2022/11/17 01:16:38;;;;;;;5.70;1.43;;;10.50;99.90;;;;;;5049575;28;20418;-80
2022/11/17 01:19:04;;;;;;;2.10;1.40;;;10.50;99.90;;;;;;5031370;28;20438;-81
2022/11/17 01:21:31;;;;;;;2.03;1.20;;;10.50;99.90;;;;;;5047836;28;20473;-80
2022/11/17 01:23:58;;;;;;;3.90;1.67;;;10.50;99.90;;;;;;5047693;28;20429;-80
2022/11/17 01:26:30;;;;;;;2.57;1.43;;;10.50;99.90;;;;;;5031037;28;20544;-82
2022/11/17 01:28:56;;;;;;;2.37;1.40;;;10.50;99.90;;;;;;5047364;28;20967;-80
2022/11/17 01:31:25;;;;;;;1.73;1.13;;;10.60;99.90;;;;;;5049186;28;20423;-80
2022/11/17 01:33:51;;;;;;;2.87;1.70;;;10.50;99.90;;;;;;5049116;28;20465;-80
2022/11/17 01:36:19;;;;;;;3.00;1.50;;;10.50;99.90;;;;;;5047684;28;20454;-80
2022/11/17 01:38:45;;;;;;;3.10;1.20;;;10.60;99.90;;;;;;5047263;28;20940;-81
2022/11/17 01:41:23;;;;;;;1.73;1.50;;;10.60;99.90;;;;;;5030763;28;20559;-80
2022/11/17 01:43:56;;;;;;;6.00;1.77;;;10.60;99.90;;;;;;5048710;28;20182;-80
2022/11/17 01:46:30;;;;;;;1.73;1.17;;;10.60;99.90;;;;;;5047380;28;20432;-79
2022/11/17 01:49:24;;;;;;;2.10;1.83;;;10.60;99.90;;;;;;5048618;28;20417;-79
2022/11/17 01:52:01;;;;;;;3.93;2.33;;;10.50;99.90;;;;;;5048643;28;20823;-80
2022/11/17 01:54:29;;;;;;;2.20;1.87;;;10.50;99.90;;;;;;5048724;28;20450;-80
2022/11/17 01:57:00;;;;;;;1.90;1.80;;;10.40;99.90;;;;;;5046804;28;20774;-80
2022/11/17 01:59:32;;;;;;;3.93;1.60;;;10.40;99.90;;;;;;5046960;28;20479;-80
2022/11/17 02:01:58;;;;;;;7.47;1.87;;;10.40;99.90;;;;;;5046829;28;20469;-79
2022/11/17 02:04:37;;;;;;;2.10;1.63;;;10.40;99.90;;;;;;5047196;28;20497;-80
2022/11/17 02:07:16;;;;;;;3.57;1.90;;;10.40;99.90;;;;;;5046737;28;20184;-84
2022/11/17 02:09:43;;;;;;;1.93;1.83;;;10.40;99.90;;;;;;5046757;28;20447;-82
2022/11/17 02:12:11;;;;;;;3.33;2.10;;;10.40;99.90;;;;;;5046810;28;20511;-83
2022/11/17 02:14:38;;;;;;;2.10;1.90;;;10.40;99.90;;;;;;5030070;28;20481;-80
2022/11/17 02:17:06;;;;;;;3.33;2.10;;;10.30;99.90;;;;;;5046913;28;20486;-79
2022/11/17 02:19:37;;;;;;;5.33;2.30;;;10.30;99.90;;;;;;5030083;28;20484;-78
2022/11/17 02:22:08;;;;;;;2.20;1.93;;;10.30;99.90;;;;;;5046704;28;20468;-79
2022/11/17 02:25:01;;;;;;;26.20;1.70;;;10.30;99.90;;;;;;5046613;28;20516;-80
2022/11/17 02:27:50;;;;;;;2.97;1.70;;;10.30;99.90;;;;;;5046677;28;20426;-81
2022/11/17 02:30:20;;;;;;;2.23;1.57;;;10.30;99.90;;;;;;5048366;28;20411;-80
2022/11/17 02:33:04;;;;;;;3.13;1.80;;;10.30;99.90;;;;;;5048149;28;20495;-82
2022/11/17 02:35:50;;;;;;;2.30;2.10;;;10.30;99.90;;;;;;5030444;28;20497;-80
2022/11/17 02:38:22;;;;;;;2.70;2.17;;;10.40;99.90;;;;;;5048126;28;20423;-81
2022/11/17 02:40:59;;;;;;;2.70;2.13;;;10.40;99.90;;;;;;5048302;28;20555;-81
2022/11/17 02:46:22;;;;;;;3.13;2.10;;;10.40;99.90;;;;;;5052189;28;20459;-81
2022/11/17 02:48:53;;;;;;;1.50;1.40;;;10.40;99.90;;;;;;5051758;28;20449;-81
2022/11/17 02:51:21;;;;;;;2.33;1.67;;;10.40;99.90;;;;;;5051062;28;21329;-84
2022/11/17 02:53:51;;;;;;;2.20;2.00;;;10.50;99.90;;;;;;5034751;28;20426;-83
2022/11/17 02:56:16;;;;;;;2.10;1.90;;;10.50;99.90;;;;;;5052414;28;20441;-81
2022/11/17 02:58:42;;;;;;;2.47;1.70;;;10.40;99.90;;;;;;5050819;28;20424;-84
2022/11/17 03:01:22;;;;;;;2.00;1.83;;;10.30;99.90;;;;;;5050036;28;20256;-81
2022/11/17 03:04:16;;;;;;;3.60;2.50;;;10.20;99.90;;;;;;5051810;28;20668;-81
2022/11/17 03:07:15;;;;;;;2.70;2.43;;;10.20;99.90;;;;;;5050506;28;20455;-83
2022/11/17 03:09:59;;;;;;;1.67;1.47;;;10.20;99.90;;;;;;5050199;28;20470;-83
2022/11/17 03:12:40;;;;;;;5.23;2.67;;;10.20;99.90;;;;;;5050297;28;20418;-82
2022/11/17 03:15:38;;;;;;;2.40;2.03;;;10.30;99.90;;;;;;5050082;28;20472;-80
2022/11/17 03:18:07;;;;;;;6.20;2.60;;;10.30;99.90;;;;;;5050260;28;20595;-80
2022/11/17 03:20:54;;;;;;;1.80;1.70;;;10.30;99.90;;;;;;5051420;28;21001;-83
2022/11/17 03:23:37;;;;;;;1.80;1.70;;;10.40;99.90;;;;;;5045264;28;20534;-82
2022/11/17 03:26:06;;;;;;;2.27;1.80;;;10.40;99.90;;;;;;5050062;28;20557;-86
2022/11/17 03:28:33;;;;;;;2.07;1.87;;;10.40;99.90;;;;;;5051553;28;20433;-82
2022/11/17 03:31:03;;;;;;;3.07;2.10;;;10.40;99.90;;;;;;5051250;28;20426;-84
2022/11/17 03:33:30;;;;;;;4.40;1.90;;;10.30;99.90;;;;;;5051376;28;20430;-80
2022/11/17 03:36:15;;;;;;;2.97;1.50;;;10.20;99.90;;;;;;5049707;28;20474;-83
2022/11/17 03:38:49;;;;;;;2.13;1.47;;;10.20;99.90;;;;;;5050404;28;20434;-81
2022/11/17 03:41:17;;;;;;;2.90;1.53;;;10.20;99.90;;;;;;5049662;28;20467;-81
2022/11/17 03:43:47;;;;;;;4.30;1.80;;;10.20;99.90;;;;;;5033114;28;20426;-80
2022/11/17 03:46:16;;;;;;;4.07;1.80;;;10.10;99.90;;;;;;5033174;28;20434;-81
2022/11/17 03:49:08;;;;;;;4.10;2.40;;;10.10;99.90;;;;;;5051026;28;20418;-81
2022/11/17 03:51:34;;;;;;;3.33;2.07;;;10.10;99.90;;;;;;5051135;28;20492;-82
2022/11/17 03:54:00;;;;;;;3.10;1.77;;;10.10;99.90;;;;;;5033078;28;20468;-82
2022/11/17 03:56:44;;;;;;;4.13;2.17;;;10.00;99.90;;;;;;5033211;28;20452;-80
2022/11/17 03:59:30;;;;;;;2.13;1.83;;;9.90;99.90;;;;;;5051309;28;20417;-81
2022/11/17 04:01:57;;;;;;;3.70;2.07;;;9.80;99.90;;;;;;5046619;28;20621;-82
2022/11/17 04:04:22;;;;;;;3.60;1.73;;;9.80;99.90;;;;;;5033243;28;20462;-84
2022/11/17 04:06:54;;;;;;;2.60;1.80;;;10.00;99.90;;;;;;5049824;28;20431;-82
2022/11/17 04:09:19;;;;;;;4.17;2.07;;;9.90;99.90;;;;;;5033372;28;20188;-79
2022/11/17 04:17:13;;;;;;;2.80;2.00;;;9.80;99.90;;;;;;5050481;28;20436;-80
2022/11/17 04:19:38;;;;;;;1.93;1.83;;;9.70;99.90;;;;;;5049456;28;20819;-81
2022/11/17 04:22:04;;;;;;;1.93;1.73;;;9.70;99.90;;;;;;5033329;28;20242;-82
2022/11/17 04:24:30;;;;;;;4.13;1.50;;;9.70;99.90;;;;;;5032844;28;20209;-85
2022/11/17 04:29:39;;;;;;;3.00;1.83;;;9.80;99.90;;;;;;5049762;28;20529;-81
2022/11/17 04:32:05;;;;;;;3.60;2.40;;;9.80;99.90;;;;;;5032409;28;20436;-84
2022/11/17 04:34:30;;;;;;;2.23;1.70;;;9.80;99.90;;;;;;5048894;28;20261;-81
2022/11/17 04:36:56;;;;;;;1.70;1.60;;;9.90;99.90;;;;;;5032556;28;20196;-81
2022/11/17 04:39:22;;;;;;;3.37;2.00;;;9.90;99.90;;;;;;5032214;28;20237;-81
2022/11/17 04:41:55;;;;;;;1.80;1.70;;;9.90;99.90;;;;;;5032098;28;20297;-80
2022/11/17 04:44:28;;;;;;;5.83;1.70;;;9.90;99.90;;;;;;5033249;28;20690;-81
2022/11/17 04:46:55;;;;;;;1.80;1.70;;;10.00;99.90;;;;;;5048646;28;20909;-82
2022/11/17 04:49:22;;;;;;;2.00;1.60;;;10.00;99.90;;;;;;5050145;28;20419;-83
2022/11/17 04:51:49;;;;;;;4.50;2.17;;;10.10;99.90;;;;;;5032469;28;20654;-86
2022/11/17 04:54:18;;;;;;;1.90;1.40;;;10.10;99.90;;;;;;5050412;28;20444;-84
2022/11/17 04:56:45;;;;;;;1.43;1.30;;;10.20;99.90;;;;;;5050508;28;20427;-84
2022/11/17 04:59:11;;;;;;;2.20;1.63;;;10.20;99.90;;;;;;5048635;28;20956;-83
2022/11/17 05:01:37;;;;;;;2.67;1.30;;;10.20;99.90;;;;;;5049747;28;20853;-82
2022/11/17 05:04:05;;;;;;;3.13;1.33;;;10.10;99.90;;;;;;5047735;28;20579;-81
2022/11/17 05:06:42;;;;;;;2.20;1.43;;;10.20;99.90;;;;;;5031770;28;20492;-83
2022/11/17 05:09:11;;;;;;;2.03;1.33;;;10.20;99.90;;;;;;5048491;28;20421;-82
2022/11/17 05:14:23;;;;;;;3.33;1.40;;;10.30;99.90;;;;;;5050091;28;20491;-84
2022/11/17 05:17:05;;;;;;;1.33;1.20;;;10.30;99.90;;;;;;5047371;28;20523;-83
2022/11/17 05:19:38;;;;;;;1.07;0.97;;;10.30;99.90;;;;;;5047123;28;20433;-82
2022/11/17 05:24:48;;;;;;;1.40;0.87;;;10.40;99.90;;;;;;5048117;28;20493;-82
2022/11/17 05:27:14;;;;;;;2.40;1.20;;;10.40;99.90;;;;;;5029817;28;20444;-82
2022/11/17 05:29:40;;;;;;;1.00;1.00;;;10.50;99.90;;;;;;5029838;28;20641;-84
2022/11/17 05:32:05;;;;;;;2.23;1.30;;;10.50;99.90;;;;;;5046693;28;20192;-85
2022/11/17 05:34:31;;;;;;;1.13;1.03;;;10.50;99.90;;;;;;5030092;28;20311;-84
2022/11/17 05:36:58;;;;;;;5.13;1.27;;;10.50;99.90;;;;;;5029937;28;20649;-85
2022/11/17 05:39:24;;;;;;;2.90;0.90;;;10.50;99.90;;;;;;5029639;28;20594;-80
2022/11/17 05:41:49;;;;;;;1.93;1.40;;;10.60;99.90;;;;;;5030018;28;20483;-82
2022/11/17 05:44:15;;;;;;;1.20;1.10;;;10.60;99.90;;;;;;5029663;28;20212;-82
2022/11/17 05:46:40;;;;;;;2.87;1.23;;;10.60;99.90;;;;;;5029563;28;20189;-81
2022/11/17 05:49:06;;;;;;;2.40;1.17;;;10.50;99.90;;;;;;5029550;28;20193;-83
2022/11/17 05:51:32;;;;;;;2.40;1.30;;;10.60;99.90;;;;;;5030303;28;20191;-83
2022/11/17 05:53:57;;;;;;;1.50;1.37;;;10.50;99.90;;;;;;5030454;28;20192;-82
2022/11/17 05:56:40;;;;;;;1.97;1.87;;;10.50;99.90;;;;;;5046924;28;20199;-81
2022/11/17 05:59:15;;;;;;;1.77;1.63;;;10.40;99.90;;;;;;5030435;28;20193;-84
2022/11/17 06:02:23;;;;;;;2.13;1.57;;;10.40;99.90;;;;;;5046993;28;20493;-81
2022/11/17 06:04:50;;;;;;;1.50;1.30;;;10.40;99.90;;;;;;5041138;28;20449;-81
2022/11/17 06:07:17;;;;;;;3.03;1.67;;;10.40;99.90;;;;;;5045747;28;20438;-82
2022/11/17 06:09:43;;;;;;;1.57;1.43;;;10.30;99.90;;;;;;5045375;28;20447;-81
2022/11/17 06:12:10;;;;;;;4.30;2.03;;;10.30;99.90;;;;;;5028984;28;20432;-82
2022/11/17 06:14:38;;;;;;;1.43;1.30;;;10.30;99.90;;;;;;5028251;28;20473;-81
2022/11/17 06:17:28;;;;;;;2.07;1.67;;;10.30;99.90;;;;;;5029130;28;20490;-81
2022/11/17 06:20:01;;;;;;;2.60;1.43;;;10.30;99.90;;;;;;5045626;28;20441;-83
2022/11/17 06:22:29;;;;;;;1.73;1.57;;;10.20;99.90;;;;;;5045778;28;20588;-81
2022/11/17 06:24:55;;;;;;;2.10;1.50;;;10.30;99.90;;;;;;5044929;28;20455;-82
2022/11/17 06:27:21;;;;;;;2.47;1.40;;;10.40;99.90;;;;;;5045420;28;20454;-84
2022/11/17 06:29:48;;;;;;;1.37;1.27;;;10.40;99.90;;;;;;5028627;28;20623;-84
2022/11/17 06:32:16;;;;;;;4.50;1.33;;;10.30;99.90;;;;;;5044841;28;20435;-81
2022/11/17 06:34:44;;;;;;;1.33;1.20;;;10.40;99.90;;;;;;5045345;28;20525;-80
2022/11/17 06:37:10;;;;;;;2.80;1.10;;;10.40;99.90;;;;;;5045060;28;20426;-80
2022/11/17 06:39:36;;;;;;;1.30;1.13;;;10.40;99.90;;;;;;5046409;28;20426;-82
2022/11/17 06:42:01;;;;;;;2.27;1.10;;;10.40;99.90;;;;;;5028480;28;20536;-80
2022/11/17 06:44:27;;;;;;;1.97;1.40;;;10.40;99.90;;;;;;5028326;28;20212;-80
2022/11/17 06:46:53;;;;;;;1.40;1.23;;;10.50;99.90;;;;;;5028492;28;20192;-82
2022/11/17 06:49:19;;;;;;;5.90;1.33;;;10.50;99.90;;;;;;5045735;28;20187;-83
2022/11/17 06:51:44;;;;;;;1.87;1.30;;;10.50;99.90;;;;;;5045623;28;20972;-81
2022/11/17 06:54:11;;;;;;;1.73;1.50;;;10.50;99.90;;;;;;5045305;28;20290;-82
2022/11/17 06:56:36;;;;;;;1.97;1.30;;;10.50;99.90;;;;;;5045887;28;20188;-81
2022/11/17 06:59:03;;;;;;;2.20;1.30;;;10.50;99.90;;;;;;5046127;28;20454;-81
2022/11/17 07:01:28;;;;;;;1.33;1.00;;;10.50;99.90;;;;;;5029299;28;20988;-82
2022/11/17 07:03:54;;;;;;;2.30;1.37;;;10.40;99.90;;;;;;5029469;28;20188;-81
2022/11/17 07:06:20;;;;;;;1.50;1.40;;;10.40;99.90;;;;;;5030878;28;20220;-83
2022/11/17 07:08:45;;;;;;;2.50;1.00;;;10.40;99.90;;;;;;5029362;28;20186;-81
2022/11/17 07:11:15;;;;;;;1.93;1.10;;;10.40;99.90;;;;;;5045320;28;20631;-81
2022/11/17 07:13:42;;;;;;;2.43;1.40;;;10.40;99.90;;;;;;5045464;28;20224;-82
2022/11/17 07:16:19;;;;;;;3.33;1.10;;;10.40;99.90;;;;;;5028863;28;20478;-81
2022/11/17 07:18:45;;;;;;;1.77;1.03;;;10.50;99.90;;;;;;5045401;28;20492;-81
2022/11/17 07:21:12;;;;;;;5.00;1.47;;;10.60;99.90;;;;;;5045009;28;20481;-82
2022/11/17 07:23:40;;;;;;;1.27;1.00;;;10.70;99.90;;;;;;5045442;28;20965;-82
2022/11/17 07:26:06;;;;;;;1.57;0.80;;;10.70;99.90;;;;;;5029074;28;20440;-83
2022/11/17 07:28:33;;;;;;;1.50;0.77;;;10.80;99.90;;;;;;5032594;28;20430;-82
2022/11/17 07:31:04;;;;;;;4.83;1.37;;;10.80;99.90;;;;;;5032256;28;20522;-82
2022/11/17 07:33:30;;;;;;;4.47;0.90;;;10.90;99.90;;;;;;5050162;28;20766;-83
2022/11/17 07:36:11;;;;;;;3.53;1.27;;;11.00;99.90;;;;;;5049809;28;20453;-83
2022/11/17 07:38:38;;;;;;;1.37;1.17;;;11.00;99.90;;;;;;5049231;28;20440;-83
2022/11/17 07:41:04;;;;;;;4.83;1.13;;;11.00;99.90;;;;;;5049690;28;20494;-81
2022/11/17 07:43:32;;;;;;;2.93;0.87;;;10.90;99.90;;;;;;5033241;28;20427;-83
2022/11/17 07:46:01;;;;;;;4.10;1.00;;;11.00;99.90;;;;;;5033336;28;20457;-81
2022/11/17 07:48:27;;;;;;;2.83;0.83;;;11.00;99.90;;;;;;5049815;28;20437;-84
2022/11/17 07:50:56;;;;;;;4.30;1.23;;;11.00;99.90;;;;;;5033122;28;20568;-83
2022/11/17 07:53:22;;;;;;;7.07;0.60;;;11.00;99.90;;;;;;5049465;28;20191;-82
2022/11/17 07:55:48;;;;;;;4.10;0.80;;;11.10;99.90;;;;;;5032992;28;20460;-83
2022/11/17 07:58:13;;;;;;;2.30;0.77;;;11.10;99.90;;;;;;5032965;28;20235;-82
2022/11/17 08:00:40;;;;;;;6.20;1.00;;;11.10;99.90;;;;;;5032851;28;20189;-83
2022/11/17 08:03:06;;;;;;;2.27;0.87;;;11.10;99.90;;;;;;5049287;28;20207;-84
2022/11/17 08:05:37;;;;;;;1.93;0.80;;;11.20;99.90;;;;;;5032548;28;20446;-83
2022/11/17 08:08:04;;;;;;;2.60;0.90;;;11.20;99.90;;;;;;5033095;28;20187;-82
2022/11/17 08:10:30;;;;;;;4.87;1.17;;;11.20;99.90;;;;;;5049556;28;20531;-83
2022/11/17 08:12:58;;;;;;;3.63;1.23;;;11.20;99.90;;;;;;5032845;28;21007;-84
2022/11/17 08:15:24;;;;;;;1.57;0.60;;;11.10;99.90;;;;;;5049238;28;20472;-86
2022/11/17 08:17:54;;;;;;;1.10;0.67;;;11.20;99.90;;;;;;5032322;28;20432;-85
2022/11/17 08:20:21;;;;;;;2.73;0.57;;;11.20;99.90;;;;;;5049242;28;20202;-85
2022/11/17 08:22:49;;;;;;;1.53;0.50;;;11.20;99.90;;;;;;5032589;28;20482;-87
2022/11/17 08:25:15;;;;;;;5.00;0.70;;;11.20;99.90;;;;;;5048832;28;20449;-85
2022/11/17 08:27:40;;;;;;;4.87;0.60;;;11.20;99.90;;;;;;5049557;28;20856;-82
2022/11/17 08:30:08;;;;;;;3.07;0.60;;;11.10;99.90;;;;;;5049083;28;20269;-86
2022/11/17 08:32:34;;;;;;;1.53;0.60;;;11.00;99.90;;;;;;5033217;28;20206;-86
2022/11/17 08:35:02;;;;;;;2.23;0.60;;;11.10;99.90;;;;;;5032344;28;20517;-84
2022/11/17 08:37:28;;;;;;;1.37;0.50;;;11.10;99.90;;;;;;5032078;28;20439;-82
2022/11/17 08:39:54;;;;;;;0.97;0.50;;;11.10;99.90;;;;;;5048322;28;20429;-82
2022/11/17 08:42:20;;;;;;;4.40;0.50;;;11.10;99.90;;;;;;5032314;28;20487;-87
2022/11/17 08:44:45;;;;;;;2.10;0.57;;;11.20;99.90;;;;;;5050277;28;20298;-81
2022/11/17 08:47:11;;;;;;;1.30;0.60;;;11.20;99.90;;;;;;5032502;28;20192;-83
2022/11/17 08:49:37;;;;;;;8.30;0.70;;;11.20;99.90;;;;;;5049622;28;20209;-87
2022/11/17 08:52:03;;;;;;;6.17;2.90;;;11.20;99.90;;;;;;5032568;28;20631;-83
2022/11/17 08:54:28;;;;;;;8.10;3.50;;;11.20;99.90;;;;;;5032555;28;20320;-85
2022/11/17 08:56:58;;;;;;;7.60;2.00;;;11.20;99.90;;;;;;5032949;28;20187;-85
2022/11/17 08:59:25;;;;;;;1.07;0.60;;;11.20;99.90;;;;;;5032775;28;20741;-82
2022/11/17 09:01:52;;;;;;;1.20;0.70;;;11.30;99.90;;;;;;5049695;28;20501;-82
2022/11/17 09:04:17;;;;;;;2.10;0.70;;;11.30;99.90;;;;;;5032553;28;20458;-83
2022/11/17 09:06:43;;;;;;;1.83;0.80;;;11.30;99.90;;;;;;5032991;28;20445;-83
2022/11/17 09:09:09;;;;;;;4.33;0.83;;;11.30;99.90;;;;;;5048565;28;20247;-84
2022/11/17 09:11:35;;;;;;;1.07;0.47;;;11.40;99.90;;;;;;5048560;28;20457;-83
2022/11/17 09:14:00;;;;;;;5.57;0.97;;;11.40;99.90;;;;;;5048283;28;20276;-82
2022/11/17 09:16:26;;;;;;;3.00;0.97;;;11.30;99.90;;;;;;5048327;28;20191;-81
2022/11/17 09:18:57;;;;;;;1.63;0.47;;;11.40;99.90;;;;;;5031983;28;20196;-83
2022/11/17 09:21:24;;;;;;;1.20;0.60;;;11.40;99.90;;;;;;5049597;28;20214;-82
2022/11/17 09:23:51;;;;;;;2.13;1.10;;;11.50;99.90;;;;;;5031725;28;20465;-84
2022/11/17 09:26:17;;;;;;;2.43;0.80;;;11.50;99.90;;;;;;5049585;28;20412;-85
2022/11/17 09:28:43;;;;;;;5.87;1.53;;;11.50;99.90;;;;;;5048022;28;20961;-85
2022/11/17 09:31:15;;;;;;;1.53;0.77;;;11.50;99.90;;;;;;5031180;28;20477;-84
2022/11/17 09:33:41;;;;;;;2.60;0.53;;;11.50;99.90;;;;;;5047695;28;20438;-83
2022/11/17 09:36:08;;;;;;;1.07;0.60;;;11.50;99.90;;;;;;5047778;28;20432;-84
2022/11/17 09:38:35;;;;;;;0.80;0.50;;;11.60;99.90;;;;;;5031626;28;20493;-83
2022/11/17 09:41:11;;;;;;;1.10;0.80;;;11.50;99.90;;;;;;5049449;28;20430;-83
2022/11/17 09:43:39;;;;;;;2.67;1.00;;;11.50;99.90;;;;;;5031439;28;20432;-83
2022/11/17 09:46:18;;;;;;;2.53;0.93;;;11.50;99.90;;;;;;5031593;28;20570;-83
2022/11/17 09:48:52;;;;;;;4.03;1.40;;;11.50;99.90;;;;;;5048315;28;21055;-84
2022/11/17 09:51:21;;;;;;;2.20;0.70;;;11.50;99.90;;;;;;5048706;28;20499;-83
2022/11/17 09:54:15;;;;;;;1.77;0.80;;;11.50;99.90;;;;;;5031502;28;20948;-84
2022/11/17 09:56:43;;;;;;;17.97;7.70;;;11.50;99.90;;;;;;5049045;28;20468;-82
2022/11/17 09:59:12;;;;;;;1.33;0.83;;;11.50;99.90;;;;;;5031506;28;20828;-82
2022/11/17 10:01:38;;;;;;;4.87;1.70;;;11.50;99.90;;;;;;5031659;28;20912;-84
2022/11/17 10:04:11;;;;;;;0.87;0.40;;;11.50;99.90;;;;;;5047689;28;20478;-81
2022/11/17 10:06:37;;;;;;;1.57;0.70;;;11.50;99.90;;;;;;5048103;28;20430;-84
2022/11/17 10:09:32;;;;;;;30.53;7.83;;;11.50;99.90;;;;;;5031201;28;20435;-82
2022/11/17 10:12:19;;;;;;;11.33;3.50;;;11.50;99.90;;;;;;5048860;28;20455;-80
2022/11/17 10:14:48;;;;;;;5.30;3.00;;;11.60;99.90;;;;;;5047286;28;20554;-84
2022/11/17 10:17:14;;;;;;;17.57;4.00;;;11.60;99.90;;;;;;5046870;28;20423;-83
2022/11/17 10:19:40;;;;;;;11.13;2.03;;;11.70;99.90;;;;;;5030620;28;20436;-83
2022/11/17 10:22:06;;;;;;;1.90;1.13;;;11.90;99.90;;;;;;5030242;28;20479;-84
2022/11/17 10:24:32;;;;;;;2.90;1.00;;;12.00;99.90;;;;;;5046693;28;20964;-82
2022/11/17 10:27:03;;;;;;;3.43;0.70;;;12.20;99.90;;;;;;5048426;28;20198;-86
2022/11/17 10:29:28;;;;;;;2.73;0.63;;;12.20;99.90;;;;;;5046814;28;20440;-83
2022/11/17 10:31:54;;;;;;;1.87;0.80;;;12.20;99.90;;;;;;5046677;28;20431;-82
2022/11/17 10:34:34;;;;;;;17.63;5.07;;;12.80;99.90;;;;;;5029914;28;20251;-83
2022/11/17 10:37:12;;;;;;;5.13;1.50;;;14.10;99.90;;;;;;5047044;28;20192;-83
2022/11/17 10:39:41;;;;;;;4.80;1.50;;;15.40;99.90;;;;;;5046529;28;20956;-84
2022/11/17 10:42:28;;;;;;;10.13;2.20;;;15.90;97.40;;;;;;5046420;28;20470;-84
2022/11/17 10:44:59;;;;;;;8.50;2.60;;;17.10;94.20;;;;;;5030503;28;20485;-82
2022/11/17 10:47:39;;;;;;;38.23;15.03;;;16.70;93.80;;;;;;5047923;28;20428;-82
2022/11/17 10:50:10;;;;;;;7.40;1.20;;;16.90;91.90;;;;;;5030153;28;20424;-81
2022/11/17 10:52:36;;;;;;;5.73;2.00;;;17.00;91.60;;;;;;5046935;28;20433;-81
2022/11/17 10:55:30;;;;;;;7.83;2.00;;;17.70;91.10;;;;;;5031367;28;20454;-82
2022/11/17 10:58:26;;;;;;;9.43;2.53;;;18.10;91.00;;;;;;5029962;28;20219;-81
2022/11/17 11:01:01;;;;;;;17.83;5.17;;;17.80;90.90;;;;;;5044312;28;20429;-81
2022/11/17 11:03:30;;;;;;;10.80;3.60;;;18.30;89.60;;;;;;5050463;28;20463;-82
2022/11/17 11:05:57;;;;;;;9.40;3.33;;;18.60;88.90;;;;;;5050420;28;20451;-83
2022/11/17 11:08:25;;;;;;;13.47;3.97;;;18.90;88.90;;;;;;5050446;28;20945;-82
2022/11/17 11:10:53;;;;;;;13.67;3.73;;;18.80;86.40;;;;;;5051529;28;20540;-81
2022/11/17 11:13:42;;;;;;;7.03;1.97;;;18.00;86.70;;;;;;5050643;28;20520;-83
2022/11/17 11:16:10;;;;;;;7.40;2.90;;;16.80;88.70;;;;;;5035985;28;20454;-82
2022/11/17 11:18:37;;;;;;;8.00;1.67;;;16.20;91.50;;;;;;5050441;28;20434;-84
2022/11/17 11:21:42;;;;;;;16.80;4.70;;;15.70;92.20;;;;;;5050719;28;20899;-83
2022/11/17 11:24:22;;;;;;;14.80;2.30;;;15.60;93.60;;;;;;5050465;28;20999;-83
2022/11/17 11:27:04;;;;;;;9.03;1.57;;;15.50;94.00;;;;;;5050843;28;20415;-84
2022/11/17 11:29:40;;;;;;;7.27;1.00;;;15.20;94.60;;;;;;5050676;28;20796;-83
2022/11/17 11:32:21;;;;;;;27.10;7.70;;;15.20;95.90;;;;;;5050514;28;20537;-83
2022/11/17 11:35:30;;;;;;;35.50;8.33;;;15.30;95.70;;;;;;5050205;28;20445;-82
2022/11/17 11:38:29;;;;;;;3.30;1.27;;;14.70;96.20;;;;;;5049947;28;20455;-82
2022/11/17 11:41:19;;;;;;;24.57;6.47;;;13.70;97.50;;;;;;5051904;28;20519;-82
2022/11/17 11:44:17;;;;;;;12.70;2.37;;;14.00;99.00;;;;;;5050643;28;20519;-82
2022/11/17 11:46:59;;;;;;;12.50;3.87;;;14.10;99.90;;;;;;5051676;28;20963;-84
2022/11/17 11:49:39;;;;;;;7.50;1.50;;;14.40;98.30;;;;;;5052649;28;20429;-82
2022/11/17 11:52:13;;;;;;;8.67;1.50;;;14.40;98.10;;;;;;5052531;28;20440;-79
2022/11/17 11:55:02;;;;;;;7.60;2.17;;;14.90;98.90;;;;;;5033743;28;20454;-78
2022/11/17 11:57:39;;;;;;;10.13;1.90;;;15.10;97.50;;;;;;5051742;28;20425;-80
2022/11/17 12:00:12;;;;;;;5.90;1.93;;;15.00;97.90;;;;;;5051419;28;20538;-80
2022/11/17 12:02:52;;;;;;;9.43;1.57;;;15.00;97.00;;;;;;5051994;28;20513;-81
2022/11/17 12:05:27;;;;;;;13.53;2.30;;;15.00;96.40;;;;;;5050189;28;20454;-80
2022/11/17 12:08:12;;;;;;;10.40;3.10;;;15.00;97.00;;;;;;5050342;28;20433;-81
2022/11/17 12:13:53;;;;;;;10.50;3.60;;;15.40;97.30;;;;;;5050036;28;20402;-80
2022/11/17 12:16:31;;;;;;;13.23;2.20;;;15.50;97.00;;;;;;5049252;28;20454;-81
2022/11/17 12:18:58;;;;;;;8.03;1.90;;;15.50;95.90;;;;;;5049343;28;20520;-83
2022/11/17 12:21:26;;;;;;;6.30;1.90;;;15.80;95.40;;;;;;5048930;28;20469;-81
2022/11/17 12:24:16;;;;;;;5.70;1.50;;;15.70;94.30;;;;;;5032548;28;20450;-82
2022/11/17 12:26:41;;;;;;;6.53;1.67;;;15.70;93.70;;;;;;5050591;28;20934;-82
2022/11/17 12:29:19;;;;;;;5.37;1.33;;;15.50;94.10;;;;;;5048844;28;20435;-79
2022/11/17 12:31:50;;;;;;;6.73;1.80;;;15.60;94.40;;;;;;5048692;28;20191;-83
2022/11/17 12:34:18;;;;;;;5.67;1.97;;;15.40;94.60;;;;;;5048316;28;20529;-83
2022/11/17 12:37:05;;;;;;;8.77;1.83;;;15.30;94.60;;;;;;5049663;28;20418;-84
2022/11/17 12:39:51;;;;;;;8.60;1.70;;;15.50;94.80;;;;;;5049414;28;20413;-83
2022/11/17 12:42:17;;;;;;;6.67;2.07;;;15.60;95.00;;;;;;5050008;28;20873;-83
2022/11/17 12:44:55;;;;;;;8.47;1.90;;;15.90;94.30;;;;;;5049417;28;20942;-86
2022/11/17 12:47:35;;;;;;;6.13;1.67;;;15.70;93.30;;;;;;5049523;28;20180;-85
2022/11/17 12:50:16;;;;;;;12.43;2.17;;;15.30;93.40;;;;;;5047683;28;20884;-84
2022/11/17 12:52:42;;;;;;;6.73;1.53;;;15.10;94.40;;;;;;5047638;28;20456;-82
2022/11/17 12:55:18;;;;;;;6.20;1.27;;;14.90;94.30;;;;;;5047677;28;20962;-83
2022/11/17 12:57:50;;;;;;;10.17;1.90;;;14.80;95.00;;;;;;5047530;28;20183;-82
2022/11/17 13:00:23;;;;;;;6.83;2.07;;;14.70;95.50;;;;;;5048680;28;20430;-85
2022/11/17 13:03:20;;;;;;;12.40;1.50;;;14.50;95.80;;;;;;5031694;28;20482;-82
2022/11/17 13:06:09;;;;;;;11.17;2.50;;;14.50;96.30;;;;;;5038701;28;20445;-83
2022/11/17 13:08:35;;;;;;;9.93;2.10;;;14.50;96.30;;;;;;5047754;28;20502;-81
2022/11/17 13:11:06;;;;;;;10.07;2.20;;;14.50;97.20;;;;;;5049354;28;20525;-84
2022/11/17 13:13:32;;;;;;;8.10;1.60;;;14.40;96.60;;;;;;5048020;28;20645;-83
2022/11/17 13:16:00;;;;;;;6.00;2.10;;;14.40;96.00;;;;;;5048687;28;20485;-79
2022/11/17 13:18:29;;;;;;;11.43;1.60;;;14.40;96.40;;;;;;5030545;28;20793;-79
2022/11/17 13:20:55;;;;;;;4.20;1.40;;;14.50;96.70;;;;;;5046502;28;20526;-79
2022/11/17 13:23:22;;;;;;;13.60;1.90;;;14.40;97.00;;;;;;5030046;28;20523;-80
2022/11/17 13:25:49;;;;;;;8.47;1.80;;;14.40;96.50;;;;;;5029437;28;21029;-80
2022/11/17 13:28:30;;;;;;;11.87;1.83;;;14.50;95.50;;;;;;5046888;28;20419;-79
2022/11/17 13:30:56;;;;;;;8.10;1.70;;;14.60;94.10;;;;;;5030629;28;21054;-80
2022/11/17 13:33:23;;;;;;;4.87;1.37;;;14.70;95.10;;;;;;5046715;28;20418;-79
2022/11/17 13:36:02;;;;;;;12.43;2.63;;;14.70;94.20;;;;;;5047621;28;20926;-81